createdAt,value
2018-02-06T00:00:54.109Z,0
2018-02-06T00:01:55.711Z,0
2018-02-06T00:02:57.321Z,0
2018-02-06T00:03:58.930Z,0
2018-02-06T00:05:00.783Z,0
2018-02-06T00:06:02.386Z,0
2018-02-06T00:07:03.998Z,0
2018-02-06T00:08:05.604Z,0
2018-02-06T00:09:07.205Z,0
2018-02-06T00:10:08.811Z,0
2018-02-06T00:11:10.638Z,0
2018-02-06T00:12:12.276Z,0
2018-02-06T00:13:14.160Z,0
2018-02-06T00:14:15.954Z,0
2018-02-06T00:15:17.559Z,0
2018-02-06T00:16:19.657Z,0
2018-02-06T00:17:21.267Z,0
2018-02-06T00:18:23.098Z,0
2018-02-06T00:19:24.699Z,0
2018-02-06T00:20:26.305Z,0
2018-02-06T00:21:27.918Z,0
2018-02-06T00:22:29.582Z,0
2018-02-06T00:23:31.183Z,0
2018-02-06T00:24:32.804Z,0
2018-02-06T00:25:34.411Z,0
2018-02-06T00:26:36.019Z,0
2018-02-06T00:27:38.065Z,0
2018-02-06T00:28:39.675Z,0
2018-02-06T00:29:41.289Z,0
2018-02-06T00:30:43.175Z,0
2018-02-06T00:31:44.856Z,0
2018-02-06T00:32:46.476Z,0
2018-02-06T00:33:48.222Z,0
2018-02-06T00:34:49.827Z,0
2018-02-06T00:35:51.438Z,0
2018-02-06T00:36:53.172Z,0
2018-02-06T00:37:55.030Z,0
2018-02-06T00:38:56.638Z,0
2018-02-06T00:39:58.243Z,0
2018-02-06T00:40:59.875Z,0
2018-02-06T00:42:01.913Z,0
2018-02-06T00:43:03.551Z,0
2018-02-06T00:44:05.194Z,0
2018-02-06T00:45:06.796Z,0
2018-02-06T00:46:08.551Z,0
2018-02-06T00:47:10.229Z,0
2018-02-06T00:48:11.931Z,0
2018-02-06T00:49:13.614Z,0
2018-02-06T00:50:15.335Z,0
2018-02-06T00:51:16.941Z,0
2018-02-06T00:52:18.606Z,0
2018-02-06T00:53:20.246Z,0
2018-02-06T00:54:21.981Z,0
2018-02-06T00:55:23.585Z,0
2018-02-06T00:56:25.240Z,0
2018-02-06T00:57:26.929Z,0
2018-02-06T00:58:28.547Z,0
2018-02-06T00:59:30.147Z,0
2018-02-06T01:00:32.343Z,0
2018-02-06T01:01:33.973Z,0
2018-02-06T01:02:36.103Z,0
2018-02-06T01:03:37.708Z,0
2018-02-06T01:04:39.633Z,0
2018-02-06T01:05:41.244Z,0
2018-02-06T01:06:42.845Z,0
2018-02-06T01:07:44.559Z,0
2018-02-06T01:08:46.173Z,0
2018-02-06T01:09:47.783Z,0
2018-02-06T01:10:50.421Z,0
2018-02-06T01:11:53.108Z,0
2018-02-06T01:12:55.157Z,0
2018-02-06T01:13:56.762Z,0
2018-02-06T01:14:58.370Z,0
2018-02-06T01:16:00.445Z,0
2018-02-06T01:17:02.055Z,0
2018-02-06T01:18:03.664Z,0
2018-02-06T01:19:05.525Z,0
2018-02-06T01:20:07.132Z,0
2018-02-06T01:21:08.742Z,0
2018-02-06T01:22:10.345Z,0
2018-02-06T01:23:11.953Z,0
2018-02-06T01:24:13.676Z,0
2018-02-06T01:25:15.685Z,0
2018-02-06T01:26:17.383Z,0
2018-02-06T01:27:19.432Z,0
2018-02-06T01:28:21.154Z,0
2018-02-06T01:29:22.757Z,0
2018-02-06T01:30:24.357Z,0
2018-02-06T01:31:26.227Z,0
2018-02-06T01:32:27.828Z,0
2018-02-06T01:33:29.435Z,0
2018-02-06T01:34:31.135Z,0
2018-02-06T01:35:32.875Z,0
2018-02-06T01:36:34.484Z,0
2018-02-06T01:37:36.636Z,0
2018-02-06T01:38:38.250Z,0
2018-02-06T01:39:39.857Z,0
2018-02-06T01:40:41.467Z,0
2018-02-06T01:41:43.067Z,0
2018-02-06T01:42:45.244Z,0
2018-02-06T01:43:46.848Z,0
2018-02-06T01:44:48.751Z,0
2018-02-06T01:45:50.666Z,0
2018-02-06T01:46:52.632Z,0
2018-02-06T01:47:54.474Z,0
2018-02-06T01:48:56.080Z,0
2018-02-06T01:49:57.844Z,0
2018-02-06T01:50:59.701Z,0
2018-02-06T01:52:02.055Z,0
2018-02-06T01:53:04.023Z,0
2018-02-06T01:54:05.812Z,0
2018-02-06T01:55:07.419Z,0
2018-02-06T01:56:09.159Z,0
2018-02-06T01:57:11.140Z,0
2018-02-06T01:58:12.780Z,0
2018-02-06T01:59:14.354Z,0
2018-02-06T02:00:15.955Z,0
2018-02-06T02:01:17.558Z,0
2018-02-06T02:02:19.169Z,0
2018-02-06T02:03:20.775Z,0
2018-02-06T02:04:22.377Z,0
2018-02-06T02:05:23.981Z,0
2018-02-06T02:06:25.589Z,0
2018-02-06T02:07:27.196Z,0
2018-02-06T02:08:28.799Z,0
2018-02-06T02:09:30.403Z,0
2018-02-06T02:10:32.010Z,0
2018-02-06T02:11:33.610Z,0
2018-02-06T02:12:35.216Z,0
2018-02-06T02:13:36.823Z,0
2018-02-06T02:14:38.424Z,0
2018-02-06T02:15:40.036Z,0
2018-02-06T02:16:41.638Z,0
2018-02-06T02:17:43.240Z,0
2018-02-06T02:18:44.848Z,0
2018-02-06T02:19:46.450Z,0
2018-02-06T02:20:48.059Z,0
2018-02-06T02:21:49.657Z,0
2018-02-06T02:22:51.912Z,0
2018-02-06T02:23:53.517Z,0
2018-02-06T02:24:55.121Z,0
2018-02-06T02:25:56.724Z,0
2018-02-06T02:26:58.332Z,0
2018-02-06T02:27:59.938Z,0
2018-02-06T02:29:01.539Z,0
2018-02-06T02:30:03.149Z,0
2018-02-06T02:31:04.751Z,0
2018-02-06T02:32:06.350Z,0
2018-02-06T02:33:07.958Z,0
2018-02-06T02:34:09.563Z,0
2018-02-06T02:35:11.164Z,0
2018-02-06T02:36:12.773Z,0
2018-02-06T02:37:14.396Z,0
2018-02-06T02:38:16.015Z,0
2018-02-06T02:39:17.616Z,0
2018-02-06T02:40:19.221Z,0
2018-02-06T02:41:20.820Z,0
2018-02-06T06:34:30.217Z,0
2018-02-06T06:35:31.820Z,0
2018-02-06T06:37:24.349Z,0
2018-02-06T06:38:25.957Z,0
2018-02-06T06:40:17.666Z,0
2018-02-06T06:41:19.266Z,0
2018-02-06T06:43:11.795Z,0
2018-02-06T06:44:13.397Z,0
2018-02-06T06:46:05.096Z,0
2018-02-06T06:47:06.698Z,0
2018-02-06T06:48:58.372Z,0
2018-02-06T06:49:59.977Z,5
2018-02-06T06:51:51.690Z,5
2018-02-06T06:52:53.292Z,5
2018-02-06T06:54:44.973Z,5
2018-02-06T06:55:46.576Z,5
2018-02-06T06:57:38.284Z,11
2018-02-06T06:58:39.886Z,11
2018-02-06T07:00:31.567Z,11
2018-02-06T07:01:33.176Z,16
2018-02-06T07:03:24.873Z,16
2018-02-06T07:04:26.476Z,22
2018-02-06T07:06:18.154Z,22
2018-02-06T07:07:19.768Z,22
2018-02-06T07:09:11.474Z,28
2018-02-06T07:10:13.080Z,28
2018-02-06T07:12:04.757Z,33
2018-02-06T07:13:06.378Z,39
2018-02-06T07:14:58.068Z,39
2018-02-06T07:15:59.676Z,45
2018-02-06T07:17:51.353Z,45
2018-02-06T07:18:52.961Z,50
2018-02-06T07:20:44.671Z,56
2018-02-06T07:21:46.283Z,61
2018-02-06T07:23:37.960Z,67
2018-02-06T07:24:39.571Z,67
2018-02-06T07:26:31.279Z,67
2018-02-06T07:27:32.885Z,67
2018-02-06T07:29:25.554Z,67
2018-02-06T07:30:27.865Z,73
2018-02-06T07:32:19.561Z,84
2018-02-06T07:33:21.167Z,90
2018-02-06T07:35:13.512Z,112
2018-02-06T07:36:15.118Z,112
2018-02-06T07:38:06.832Z,118
2018-02-06T07:39:08.437Z,123
2018-02-06T07:41:00.119Z,118
2018-02-06T07:42:01.732Z,123
2018-02-06T07:43:53.439Z,123
2018-02-06T07:44:55.050Z,123
2018-02-06T07:46:46.728Z,118
2018-02-06T07:47:48.337Z,135
2018-02-06T07:49:40.037Z,140
2018-02-06T07:50:41.650Z,140
2018-02-06T07:52:33.329Z,151
2018-02-06T07:53:34.942Z,157
2018-02-06T07:55:26.652Z,168
2018-02-06T07:56:28.257Z,174
2018-02-06T07:58:19.943Z,196
2018-02-06T07:59:21.548Z,208
2018-02-06T08:01:13.258Z,208
2018-02-06T08:02:14.866Z,202
2018-02-06T08:04:06.552Z,196
2018-02-06T08:05:08.213Z,191
2018-02-06T08:06:59.863Z,196
2018-02-06T08:08:01.465Z,202
2018-02-06T08:09:53.146Z,208
2018-02-06T08:10:54.756Z,213
2018-02-06T08:12:46.466Z,225
2018-02-06T08:13:48.078Z,241
2018-02-06T08:15:39.760Z,253
2018-02-06T08:16:41.372Z,264
2018-02-06T08:18:33.083Z,270
2018-02-06T08:19:34.694Z,270
2018-02-06T08:21:26.386Z,270
2018-02-06T08:22:27.989Z,270
2018-02-06T08:24:19.696Z,275
2018-02-06T08:25:21.306Z,281
2018-02-06T08:27:12.983Z,281
2018-02-06T08:28:14.598Z,292
2018-02-06T08:30:06.303Z,337
2018-02-06T08:31:07.907Z,365
2018-02-06T08:32:59.589Z,427
2018-02-06T08:34:01.203Z,461
2018-02-06T08:35:52.908Z,466
2018-02-06T08:36:54.516Z,444
2018-02-06T08:38:47.061Z,461
2018-02-06T08:39:48.667Z,489
2018-02-06T08:41:40.375Z,438
2018-02-06T08:42:41.981Z,450
2018-02-06T08:44:33.667Z,472
2018-02-06T08:45:35.274Z,438
2018-02-06T08:47:26.981Z,399
2018-02-06T08:48:28.590Z,388
2018-02-06T08:50:20.267Z,376
2018-02-06T08:51:21.879Z,360
2018-02-06T08:53:14.073Z,326
2018-02-06T08:54:15.680Z,331
2018-02-06T08:55:17.296Z,326
2018-02-06T08:56:18.903Z,326
2018-02-06T08:57:20.520Z,343
2018-02-06T08:58:22.128Z,556
2018-02-06T08:59:23.742Z,675
2018-02-06T09:00:25.355Z,978
2018-02-06T09:01:26.959Z,1023
2018-02-06T09:02:28.569Z,1068
2018-02-06T09:03:30.182Z,1220
2018-02-06T09:04:31.795Z,1406
2018-02-06T09:05:33.406Z,1462
2018-02-06T09:06:35.005Z,765
2018-02-06T09:07:36.622Z,1012
2018-02-06T09:08:38.228Z,1023
2018-02-06T09:09:39.840Z,1209
2018-02-06T09:10:41.452Z,1147
2018-02-06T09:11:43.065Z,1203
2018-02-06T09:12:45.545Z,984
2018-02-06T09:13:47.157Z,860
2018-02-06T09:14:48.775Z,1158
2018-02-06T09:15:50.384Z,1220
2018-02-06T09:16:52.050Z,1170
2018-02-06T09:17:53.604Z,1130
2018-02-06T09:18:55.222Z,1063
2018-02-06T09:19:56.830Z,1018
2018-02-06T09:20:58.451Z,911
2018-02-06T09:22:00.057Z,1046
2018-02-06T09:23:01.676Z,1501
2018-02-06T09:24:03.282Z,1541
2018-02-06T09:25:04.896Z,1552
2018-02-06T09:26:06.507Z,1726
2018-02-06T09:27:08.122Z,1743
2018-02-06T09:28:09.740Z,1423
2018-02-06T09:29:11.355Z,1153
2018-02-06T09:30:12.965Z,1462
2018-02-06T09:31:14.576Z,1788
2018-02-06T09:32:16.195Z,1833
2018-02-06T09:33:17.805Z,1608
2018-02-06T09:34:19.424Z,1231
2018-02-06T09:35:21.038Z,1513
2018-02-06T09:36:22.656Z,1890
2018-02-06T09:37:24.267Z,1906
2018-02-06T09:38:25.888Z,1951
2018-02-06T09:39:27.497Z,2013
2018-02-06T09:40:29.115Z,2064
2018-02-06T09:41:30.734Z,2154
2018-02-06T09:42:32.348Z,2221
2018-02-06T09:43:33.967Z,2289
2018-02-06T09:44:35.583Z,2390
2018-02-06T09:45:37.878Z,2497
2018-02-06T09:46:39.494Z,2559
2018-02-06T09:47:41.121Z,2615
2018-02-06T09:48:42.730Z,2160
2018-02-06T09:49:44.353Z,2317
2018-02-06T09:50:45.969Z,2176
2018-02-06T09:51:47.584Z,2013
2018-02-06T09:52:49.205Z,1698
2018-02-06T09:53:50.824Z,1479
2018-02-06T09:54:52.437Z,1327
2018-02-06T09:55:54.056Z,1226
2018-02-06T09:56:55.680Z,1181
2018-02-06T09:57:57.295Z,1119
2018-02-06T09:58:58.916Z,1029
2018-02-06T10:00:00.529Z,961
2018-02-06T10:01:02.150Z,922
2018-02-06T10:02:03.765Z,911
2018-02-06T10:03:05.384Z,900
2018-02-06T10:04:07.002Z,877
2018-02-06T10:05:08.627Z,843
2018-02-06T10:06:10.234Z,810
2018-02-06T10:07:11.852Z,781
2018-02-06T10:08:13.469Z,765
2018-02-06T10:09:15.087Z,753
2018-02-06T10:10:16.702Z,765
2018-02-06T10:11:19.061Z,781
2018-02-06T10:12:20.675Z,815
2018-02-06T10:13:22.293Z,866
2018-02-06T10:14:23.910Z,928
2018-02-06T10:15:25.526Z,1001
2018-02-06T10:16:27.145Z,1063
2018-02-06T10:17:28.763Z,1119
2018-02-06T10:18:30.382Z,1136
2018-02-06T10:19:32.002Z,1153
2018-02-06T10:20:33.607Z,1096
2018-02-06T10:21:35.228Z,1080
2018-02-06T10:22:36.848Z,978
2018-02-06T10:23:38.456Z,916
2018-02-06T10:24:40.072Z,860
2018-02-06T10:25:41.684Z,815
2018-02-06T10:26:44.121Z,781
2018-02-06T10:27:47.962Z,765
2018-02-06T10:28:48.638Z,742
2018-02-06T10:29:50.247Z,725
2018-02-06T10:30:51.858Z,697
2018-02-06T10:31:53.471Z,691
2018-02-06T10:32:55.087Z,686
2018-02-06T10:33:56.701Z,663
2018-02-06T10:34:58.312Z,652
2018-02-06T10:35:59.925Z,669
2018-02-06T10:37:01.633Z,691
2018-02-06T10:38:03.246Z,697
2018-02-06T10:39:04.857Z,680
2018-02-06T10:40:06.475Z,652
2018-02-06T10:41:08.091Z,624
2018-02-06T10:42:09.700Z,585
2018-02-06T10:43:11.312Z,556
2018-02-06T10:44:12.927Z,551
2018-02-06T10:45:14.541Z,551
2018-02-06T10:46:16.632Z,545
2018-02-06T10:47:18.247Z,540
2018-02-06T10:48:19.862Z,534
2018-02-06T10:49:21.471Z,528
2018-02-06T10:50:23.089Z,528
2018-02-06T10:51:24.700Z,528
2018-02-06T10:52:26.310Z,528
2018-02-06T10:53:27.919Z,517
2018-02-06T10:54:29.529Z,511
2018-02-06T10:55:31.969Z,495
2018-02-06T10:56:32.710Z,478
2018-02-06T10:57:34.324Z,461
2018-02-06T10:58:35.933Z,438
2018-02-06T10:59:37.550Z,416
2018-02-06T11:00:39.155Z,399
2018-02-06T11:01:40.770Z,393
2018-02-06T11:02:42.380Z,393
2018-02-06T11:03:43.988Z,388
2018-02-06T11:04:45.597Z,371
2018-02-06T11:05:47.218Z,354
2018-02-06T11:06:48.820Z,337
2018-02-06T11:07:50.431Z,326
2018-02-06T11:08:52.046Z,320
2018-02-06T11:09:53.658Z,315
2018-02-06T11:10:55.270Z,315
2018-02-06T11:11:56.883Z,320
2018-02-06T11:12:58.492Z,326
2018-02-06T11:14:00.113Z,331
2018-02-06T11:15:01.712Z,326
2018-02-06T11:16:03.325Z,309
2018-02-06T11:17:04.935Z,292
2018-02-06T11:18:07.181Z,286
2018-02-06T11:19:08.789Z,270
2018-02-06T11:20:10.402Z,258
2018-02-06T11:21:12.012Z,253
2018-02-06T11:22:13.625Z,253
2018-02-06T11:23:15.238Z,253
2018-02-06T11:24:16.851Z,253
2018-02-06T11:25:18.458Z,247
2018-02-06T11:26:20.066Z,247
2018-02-06T11:27:21.680Z,247
2018-02-06T11:28:23.285Z,247
2018-02-06T11:29:24.899Z,241
2018-02-06T11:30:26.506Z,241
2018-02-06T11:31:28.119Z,241
2018-02-06T11:32:29.723Z,241
2018-02-06T11:33:31.335Z,247
2018-02-06T11:34:32.942Z,247
2018-02-06T11:35:34.555Z,253
2018-02-06T11:36:36.163Z,247
2018-02-06T11:37:37.772Z,247
2018-02-06T11:38:39.381Z,241
2018-02-06T11:39:40.993Z,236
2018-02-06T11:40:42.598Z,230
2018-02-06T11:41:44.209Z,225
2018-02-06T11:42:45.819Z,219
2018-02-06T11:43:47.427Z,219
2018-02-06T11:44:49.041Z,213
2018-02-06T11:45:50.649Z,213
2018-02-06T11:46:52.261Z,213
2018-02-06T11:47:53.868Z,208
2018-02-06T11:48:55.478Z,213
2018-02-06T11:49:57.086Z,213
2018-02-06T11:50:58.697Z,219
2018-02-06T11:52:00.310Z,225
2018-02-06T11:53:01.922Z,230
2018-02-06T11:54:03.532Z,230
2018-02-06T11:55:05.135Z,236
2018-02-06T11:56:06.746Z,241
2018-02-06T11:57:08.358Z,247
2018-02-06T11:58:09.966Z,247
2018-02-06T11:59:11.580Z,247
2018-02-06T12:00:13.187Z,241
2018-02-06T12:01:14.792Z,241
2018-02-06T12:02:16.404Z,241
2018-02-06T12:03:18.013Z,247
2018-02-06T12:04:19.624Z,247
2018-02-06T12:05:21.231Z,247
2018-02-06T12:06:22.845Z,241
2018-02-06T12:07:24.457Z,241
2018-02-06T12:08:26.061Z,241
2018-02-06T12:09:27.667Z,247
2018-02-06T12:10:29.274Z,253
2018-02-06T12:11:30.887Z,270
2018-02-06T12:12:32.496Z,264
2018-02-06T12:13:34.105Z,264
2018-02-06T12:14:35.722Z,264
2018-02-06T12:15:37.330Z,258
2018-02-06T12:16:38.940Z,258
2018-02-06T12:17:40.548Z,253
2018-02-06T12:18:42.160Z,247
2018-02-06T12:19:43.769Z,247
2018-02-06T12:20:46.210Z,241
2018-02-06T12:21:47.816Z,236
2018-02-06T12:22:49.427Z,236
2018-02-06T12:23:51.032Z,230
2018-02-06T12:24:52.641Z,230
2018-02-06T12:25:54.251Z,230
2018-02-06T12:26:55.860Z,230
2018-02-06T12:27:57.476Z,230
2018-02-06T12:28:59.084Z,230
2018-02-06T12:30:00.695Z,230
2018-02-06T12:31:02.301Z,225
2018-02-06T12:32:03.912Z,225
2018-02-06T12:33:05.519Z,219
2018-02-06T12:34:07.132Z,219
2018-02-06T12:35:08.740Z,213
2018-02-06T12:36:10.349Z,213
2018-02-06T12:37:11.960Z,219
2018-02-06T12:38:13.572Z,225
2018-02-06T12:39:15.177Z,230
2018-02-06T12:40:16.786Z,230
2018-02-06T12:41:18.402Z,236
2018-02-06T12:42:20.007Z,247
2018-02-06T12:43:21.621Z,258
2018-02-06T12:44:23.225Z,270
2018-02-06T12:45:24.837Z,270
2018-02-06T12:46:26.443Z,258
2018-02-06T12:47:28.057Z,258
2018-02-06T12:48:29.670Z,258
2018-02-06T12:49:31.281Z,258
2018-02-06T12:50:32.888Z,264
2018-02-06T12:51:34.497Z,270
2018-02-06T12:52:36.101Z,275
2018-02-06T12:53:37.731Z,275
2018-02-06T12:54:39.326Z,281
2018-02-06T12:55:40.930Z,286
2018-02-06T12:56:42.539Z,292
2018-02-06T12:57:44.152Z,309
2018-02-06T12:58:45.756Z,348
2018-02-06T12:59:47.366Z,382
2018-02-06T13:00:48.977Z,399
2018-02-06T13:01:50.584Z,410
2018-02-06T13:02:52.194Z,405
2018-02-06T13:03:53.809Z,399
2018-02-06T13:04:55.420Z,388
2018-02-06T13:05:57.024Z,382
2018-02-06T13:06:58.638Z,365
2018-02-06T13:08:00.242Z,348
2018-02-06T13:09:01.856Z,337
2018-02-06T13:10:03.461Z,331
2018-02-06T13:11:05.075Z,331
2018-02-06T13:12:06.681Z,348
2018-02-06T13:13:08.292Z,354
2018-02-06T13:14:09.901Z,354
2018-02-06T13:15:11.514Z,343
2018-02-06T13:16:13.121Z,337
2018-02-06T13:17:14.730Z,326
2018-02-06T13:18:16.343Z,309
2018-02-06T13:19:17.957Z,286
2018-02-06T13:20:19.562Z,275
2018-02-06T13:21:21.754Z,270
2018-02-06T13:22:23.369Z,264
2018-02-06T13:23:24.979Z,275
2018-02-06T13:24:26.584Z,286
2018-02-06T13:25:28.201Z,303
2018-02-06T13:26:29.808Z,315
2018-02-06T13:27:31.420Z,309
2018-02-06T13:28:33.023Z,292
2018-02-06T13:29:34.636Z,281
2018-02-06T13:30:36.244Z,286
2018-02-06T13:31:37.857Z,286
2018-02-06T13:32:39.465Z,281
2018-02-06T13:33:41.079Z,270
2018-02-06T13:34:42.682Z,241
2018-02-06T13:35:44.304Z,219
2018-02-06T13:36:45.896Z,213
2018-02-06T13:37:47.509Z,213
2018-02-06T13:38:49.115Z,213
2018-02-06T13:39:50.726Z,213
2018-02-06T13:40:52.340Z,219
2018-02-06T13:41:53.946Z,219
2018-02-06T13:42:55.558Z,219
2018-02-06T13:43:57.162Z,219
2018-02-06T13:44:58.776Z,225
2018-02-06T13:46:00.381Z,225
2018-02-06T13:47:01.996Z,225
2018-02-06T13:48:03.604Z,230
2018-02-06T13:49:05.773Z,241
2018-02-06T13:50:07.380Z,258
2018-02-06T13:51:08.991Z,264
2018-02-06T13:52:10.598Z,270
2018-02-06T13:53:12.211Z,270
2018-02-06T13:54:13.819Z,258
2018-02-06T13:55:15.432Z,258
2018-02-06T13:56:17.036Z,253
2018-02-06T13:57:18.646Z,247
2018-02-06T13:58:20.259Z,253
2018-02-06T13:59:21.898Z,258
2018-02-06T14:00:23.507Z,247
2018-02-06T14:01:25.120Z,225
2018-02-06T14:02:26.735Z,196
2018-02-06T14:03:28.340Z,185
2018-02-06T14:04:29.949Z,185
2018-02-06T14:05:31.563Z,180
2018-02-06T14:06:33.173Z,168
2018-02-06T14:07:34.780Z,163
2018-02-06T14:08:36.394Z,157
2018-02-06T14:09:38.010Z,157
2018-02-06T14:10:39.616Z,157
2018-02-06T14:11:41.269Z,157
2018-02-06T14:12:42.835Z,151
2018-02-06T14:13:44.444Z,151
2018-02-06T14:14:46.055Z,146
2018-02-06T14:15:47.669Z,146
2018-02-06T14:16:49.280Z,140
2018-02-06T14:17:50.887Z,135
2018-02-06T14:18:52.496Z,135
2018-02-06T14:19:54.109Z,135
2018-02-06T14:20:55.720Z,135
2018-02-06T14:21:57.324Z,135
2018-02-06T14:22:58.933Z,135
2018-02-06T14:24:00.550Z,135
2018-02-06T14:25:03.074Z,140
2018-02-06T14:26:04.675Z,146
2018-02-06T14:27:06.288Z,157
2018-02-06T14:28:08.578Z,157
2018-02-06T14:29:10.195Z,163
2018-02-06T14:30:11.797Z,157
2018-02-06T14:31:13.409Z,151
2018-02-06T14:32:15.023Z,146
2018-02-06T14:33:16.632Z,140
2018-02-06T14:34:18.239Z,140
2018-02-06T14:35:19.848Z,135
2018-02-06T14:36:21.461Z,129
2018-02-06T14:37:23.072Z,129
2018-02-06T14:38:24.679Z,123
2018-02-06T14:39:26.289Z,123
2018-02-06T14:40:27.900Z,123
2018-02-06T14:41:29.510Z,118
2018-02-06T14:42:31.116Z,118
2018-02-06T14:43:32.734Z,118
2018-02-06T14:44:34.347Z,118
2018-02-06T14:45:35.955Z,118
2018-02-06T14:46:37.565Z,118
2018-02-06T14:47:39.178Z,112
2018-02-06T14:48:40.783Z,118
2018-02-06T14:49:42.392Z,118
2018-02-06T14:50:44.009Z,112
2018-02-06T14:51:45.616Z,106
2018-02-06T14:52:47.226Z,101
2018-02-06T14:53:48.837Z,101
2018-02-06T14:54:50.446Z,95
2018-02-06T14:55:52.056Z,90
2018-02-06T14:56:53.847Z,84
2018-02-06T14:57:55.499Z,84
2018-02-06T14:58:57.205Z,78
2018-02-06T14:59:58.868Z,78
2018-02-06T15:01:00.481Z,78
2018-02-06T15:02:02.147Z,73
2018-02-06T15:03:03.797Z,73
2018-02-06T15:04:05.416Z,73
2018-02-06T15:05:07.018Z,73
2018-02-06T15:06:08.631Z,73
2018-02-06T15:07:10.237Z,67
2018-02-06T15:08:11.848Z,67
2018-02-06T15:09:13.452Z,67
2018-02-06T15:10:15.060Z,61
2018-02-06T15:11:16.667Z,56
2018-02-06T15:12:18.279Z,56
2018-02-06T15:13:19.884Z,56
2018-02-06T15:14:21.490Z,56
2018-02-06T15:15:23.099Z,56
2018-02-06T15:16:24.704Z,56
2018-02-06T15:17:26.310Z,61
2018-02-06T15:18:27.917Z,61
2018-02-06T15:19:29.534Z,67
2018-02-06T15:20:31.137Z,67
2018-02-06T15:21:32.752Z,67
2018-02-06T15:22:34.356Z,67
2018-02-06T15:23:35.967Z,61
2018-02-06T15:24:37.585Z,61
2018-02-06T15:25:39.185Z,61
2018-02-06T15:26:40.793Z,61
2018-02-06T15:27:42.404Z,61
2018-02-06T15:28:44.012Z,61
2018-02-06T15:29:45.620Z,61
2018-02-06T15:30:47.235Z,61
2018-02-06T15:31:48.835Z,61
2018-02-06T15:32:50.446Z,61
2018-02-06T15:33:52.057Z,61
2018-02-06T15:34:53.668Z,61
2018-02-06T15:35:55.277Z,61
2018-02-06T15:36:56.879Z,56
2018-02-06T15:37:58.490Z,56
2018-02-06T15:39:00.098Z,56
2018-02-06T15:40:01.702Z,56
2018-02-06T15:41:03.306Z,56
2018-02-06T15:42:04.916Z,56
2018-02-06T15:43:06.527Z,56
2018-02-06T15:44:08.135Z,56
2018-02-06T15:45:09.748Z,56
2018-02-06T15:46:11.357Z,56
2018-02-06T15:47:12.962Z,50
2018-02-06T15:48:14.567Z,50
2018-02-06T15:49:16.174Z,50
2018-02-06T15:50:17.785Z,45
2018-02-06T15:51:19.386Z,45
2018-02-06T15:52:20.996Z,39
2018-02-06T15:53:22.604Z,39
2018-02-06T15:54:24.207Z,33
2018-02-06T15:55:25.812Z,33
2018-02-06T15:56:27.422Z,33
2018-02-06T15:57:29.033Z,33
2018-02-06T15:58:30.638Z,28
2018-02-06T15:59:32.240Z,28
2018-02-06T16:00:33.848Z,28
2018-02-06T16:01:35.458Z,28
2018-02-06T16:02:37.067Z,28
2018-02-06T16:03:38.673Z,28
2018-02-06T16:04:40.284Z,22
2018-02-06T16:05:41.887Z,22
2018-02-06T16:06:43.495Z,22
2018-02-06T16:07:45.101Z,22
2018-02-06T16:08:46.707Z,22
2018-02-06T16:09:48.319Z,22
2018-02-06T16:10:49.924Z,22
2018-02-06T16:11:51.536Z,22
2018-02-06T16:12:53.137Z,16
2018-02-06T16:13:54.748Z,16
2018-02-06T16:14:56.351Z,16
2018-02-06T16:15:57.957Z,16
2018-02-06T16:16:59.563Z,16
2018-02-06T16:18:01.175Z,16
2018-02-06T16:19:02.780Z,16
2018-02-06T16:20:04.384Z,11
2018-02-06T16:21:05.992Z,11
2018-02-06T16:22:07.600Z,11
2018-02-06T16:23:09.210Z,11
2018-02-06T16:24:10.813Z,11
2018-02-06T16:25:12.425Z,11
2018-02-06T16:26:14.031Z,5
2018-02-06T16:27:15.640Z,5
2018-02-06T16:28:17.241Z,5
2018-02-06T16:29:18.851Z,5
2018-02-06T16:30:20.451Z,5
2018-02-06T16:31:22.062Z,5
2018-02-06T16:32:23.665Z,5
2018-02-06T16:33:25.270Z,0
2018-02-06T16:34:26.871Z,0
2018-02-06T16:35:28.480Z,0
2018-02-06T16:36:30.083Z,0
2018-02-06T16:37:31.699Z,0
2018-02-06T16:38:33.294Z,0
2018-02-06T16:39:34.900Z,0
2018-02-06T16:40:36.512Z,0
2018-02-06T16:41:38.115Z,0
2018-02-06T16:42:39.726Z,0
2018-02-06T16:43:41.364Z,0
2018-02-06T16:44:42.970Z,0
2018-02-06T16:45:45.436Z,0
2018-02-06T16:46:47.042Z,0
2018-02-06T16:47:48.652Z,0
2018-02-06T16:48:50.485Z,0
2018-02-06T16:49:52.088Z,0
2018-02-06T16:50:53.694Z,0
2018-02-06T16:51:55.296Z,0
2018-02-06T16:52:56.907Z,0
2018-02-06T16:53:58.510Z,0
2018-02-06T16:55:00.116Z,0
2018-02-06T16:56:01.723Z,0
2018-02-06T16:57:03.323Z,0
2018-02-06T16:58:04.930Z,0
2018-02-06T16:59:06.537Z,0
2018-02-06T17:00:08.922Z,0
2018-02-06T17:01:11.083Z,0
2018-02-06T17:02:12.690Z,0
2018-02-06T17:03:14.294Z,0
2018-02-06T17:04:15.892Z,0
2018-02-06T17:05:17.494Z,0
2018-02-06T17:06:19.105Z,0
2018-02-06T17:07:20.704Z,0
2018-02-06T17:08:22.313Z,0
2018-02-06T17:09:23.916Z,0
2018-02-06T17:10:25.521Z,0
2018-02-06T17:11:27.128Z,0
2018-02-06T17:12:28.727Z,0
2018-02-06T17:13:30.331Z,0
2018-02-06T17:14:31.997Z,0
2018-02-06T17:15:33.539Z,0
2018-02-06T17:16:35.147Z,0
2018-02-06T17:17:36.747Z,0
2018-02-06T17:18:38.353Z,0
2018-02-06T17:19:39.951Z,0
2018-02-06T17:20:41.558Z,0
2018-02-06T17:21:43.159Z,0
2018-02-06T17:22:44.770Z,0
2018-02-06T17:23:46.376Z,0
2018-02-06T17:24:47.975Z,0
2018-02-06T17:25:49.581Z,0
2018-02-06T17:26:51.185Z,0
2018-02-06T17:27:52.786Z,0
2018-02-06T17:28:54.393Z,0
2018-02-06T17:29:55.998Z,0
2018-02-06T17:30:57.603Z,0
2018-02-06T17:31:59.209Z,0
2018-02-06T17:33:00.804Z,0
2018-02-06T17:34:02.412Z,0
2018-02-06T17:35:04.012Z,0
2018-02-06T17:36:06.572Z,0
2018-02-06T17:37:08.176Z,0
2018-02-06T17:38:09.799Z,0
2018-02-06T17:39:11.398Z,0
2018-02-06T17:40:13.000Z,0
2018-02-06T17:41:14.607Z,0
2018-02-06T17:42:16.213Z,0
2018-02-06T17:43:17.815Z,0
2018-02-06T17:44:19.423Z,0
2018-02-06T17:45:21.027Z,0
2018-02-06T17:46:22.630Z,0
2018-02-06T17:47:24.231Z,0
2018-02-06T17:48:25.834Z,0
2018-02-06T17:49:27.440Z,0
2018-02-06T17:50:29.048Z,0
2018-02-06T17:51:30.649Z,0
2018-02-06T17:52:32.253Z,0
2018-02-06T17:53:33.858Z,0
2018-02-06T17:54:35.462Z,0
2018-02-06T17:55:37.062Z,0
2018-02-06T17:56:38.671Z,0
2018-02-06T17:57:40.272Z,0
2018-02-06T17:58:41.881Z,0
2018-02-06T17:59:43.482Z,0
2018-02-06T18:00:45.089Z,0
2018-02-06T18:01:46.686Z,0
2018-02-06T18:02:48.288Z,0
2018-02-06T18:03:49.896Z,0
2018-02-06T18:04:51.501Z,0
2018-02-06T18:05:53.100Z,0
2018-02-06T18:06:54.706Z,0
2018-02-06T18:07:56.313Z,0
2018-02-06T18:08:57.915Z,0
2018-02-06T18:09:59.515Z,0
2018-02-06T18:11:01.121Z,0
2018-02-06T18:12:02.728Z,0
2018-02-06T18:13:04.332Z,0
2018-02-06T18:14:05.941Z,0
2018-02-06T18:15:07.544Z,0
2018-02-06T18:16:09.145Z,0
2018-02-06T18:17:10.764Z,0
2018-02-06T18:18:12.371Z,0
2018-02-06T18:19:13.971Z,0
2018-02-06T18:20:15.579Z,0
2018-02-06T18:21:17.181Z,0
2018-02-06T18:22:18.787Z,0
2018-02-06T18:23:20.385Z,0
2018-02-06T18:24:21.995Z,0
2018-02-06T18:25:23.597Z,0
2018-02-06T18:26:25.204Z,0
2018-02-06T18:27:26.811Z,0
2018-02-06T18:28:28.413Z,0
2018-02-06T18:29:30.025Z,0
2018-02-06T18:30:31.633Z,0
2018-02-06T18:31:33.237Z,0
2018-02-06T18:32:34.839Z,0
2018-02-06T18:33:36.508Z,0
2018-02-06T18:34:38.062Z,0
2018-02-06T18:35:39.665Z,0
2018-02-06T18:36:41.305Z,0
2018-02-06T18:37:42.916Z,0
2018-02-06T18:38:44.517Z,0
2018-02-06T18:39:46.122Z,0
2018-02-06T18:40:47.730Z,0
2018-02-06T18:41:49.332Z,0
2018-02-06T18:42:50.971Z,0
2018-02-06T18:43:52.539Z,0
2018-02-06T18:44:54.149Z,0
2018-02-06T18:45:55.747Z,0
2018-02-06T18:46:57.354Z,0
2018-02-06T18:47:58.956Z,0
2018-02-06T18:49:00.566Z,0
2018-02-06T18:50:02.170Z,0
2018-02-06T18:51:03.776Z,0
2018-02-06T18:52:05.385Z,0
2018-02-06T18:53:06.983Z,0
2018-02-06T18:54:08.589Z,0
2018-02-06T18:55:10.192Z,0
2018-02-06T18:56:11.801Z,0
2018-02-06T18:57:13.404Z,0
2018-02-06T18:58:15.019Z,0
2018-02-06T18:59:16.606Z,0
2018-02-06T19:00:18.210Z,0
2018-02-06T19:01:19.811Z,0
2018-02-06T19:02:21.420Z,0
2018-02-06T19:03:23.030Z,0
2018-02-06T19:04:24.627Z,0
2018-02-06T19:05:26.231Z,0
2018-02-06T19:06:27.844Z,0